Latest Weather Observations for Penrith

IDN60801

Issued at 6:33 pm EST Saturday 23 July 2016 (issued every 30 minutes, with the page automatically refreshed every 10 minutes)

About weather observations | Map of weather stations | Latest weather observations for NSW | Other Formats
Station Details ID: 067113 Name: PENRITH LAKES AWS Lat: -33.72 Lon: 150.68 Height: 24.7 m
Data from the previous 72 hours. | See also: Recent months at Penrith
Date/Time
EST
Temp
°C
App
Temp
°C
Dew
Point
°C
Rel
Hum
%
Delta-T
°C
Wind Press
QNH
hPa
Press
MSL
hPa
Rain since
9am
mm
Dir  Spd
km/h
Gust
km/h
Spd
kts
Gust
kts
23/06:30pm 12.9 8.7 -1.1 38 5.7 W 11 22 6 12 - - 0.0
23/06:00pm 12.9 7.7 0.3 42 5.3 WNW 17 28 9 15 - - 0.0
23/05:30pm 13.9 8.9 -0.9 36 6.1 W 15 32 8 17 - - 0.0
23/05:00pm 13.9 9.5 0.2 39 5.8 W 13 24 7 13 - - 0.0
23/04:30pm 14.8 9.0 -0.1 36 6.3 W 20 35 11 19 - - 0.0
23/04:07pm 15.2 7.8 -0.9 33 6.7 W 28 46 15 25 - - 0.0
23/04:00pm 15.4 9.2 -0.4 34 6.6 W 22 43 12 23 - - 0.0
23/03:48pm 15.6 7.9 -0.2 34 6.7 W 30 61 16 33 - - 0.0
23/03:47pm 15.6 8.6 -0.2 34 6.7 W 26 46 14 25 - - 0.0
23/03:30pm 16.1 11.3 0.3 34 6.8 W 15 26 8 14 - - 0.0
23/03:00pm 16.1 9.8 1.8 38 6.3 WNW 24 57 13 31 - - 0.0
23/02:30pm 16.4 10.6 2.4 39 6.3 W 22 43 12 23 - - 0.0
23/02:00pm 15.9 7.7 2.7 41 6.0 W 35 63 19 34 - - 0.0
23/01:46pm 16.0 8.6 2.1 39 6.2 W 30 59 16 32 - - 0.0
23/01:45pm 16.0 9.0 2.1 39 6.2 W 28 59 15 32 - - 0.0
23/01:30pm 16.2 10.6 3.3 42 5.9 WNW 22 37 12 20 - - 0.0
23/01:00pm 15.9 10.4 4.0 45 5.5 WNW 22 44 12 24 - - 0.0
23/12:31pm 15.7 9.0 3.5 44 5.6 WNW 28 48 15 26 - - 0.0
23/12:30pm 15.8 9.6 4.2 46 5.4 WNW 26 48 14 26 - - 0.0
23/12:00pm 15.4 7.3 3.5 45 5.4 WNW 35 57 19 31 - - 0.0
23/11:32am 15.4 7.7 3.2 44 5.5 WNW 33 59 18 32 - - 0.0
23/11:30am 15.4 7.9 3.5 45 5.4 WNW 32 50 17 27 - - 0.0
23/11:28am 15.4 8.4 3.9 46 5.3 WNW 30 50 16 27 - - 0.0
23/11:00am 14.9 7.7 2.8 44 5.4 W 30 54 16 29 - - 0.0
23/10:50am 14.8 7.9 2.4 43 5.5 W 28 48 15 26 - - 0.0
23/10:32am 15.1 7.8 2.6 43 5.6 W 30 46 16 25 - - 0.0
23/10:30am 15.1 8.5 2.3 42 5.7 W 26 46 14 25 - - 0.0
23/10:00am 14.7 6.3 1.3 40 5.8 W 35 56 19 30 - - 0.0
23/09:30am 14.6 6.7 1.2 40 5.8 W 32 54 17 29 - - 0.0
23/09:00am 14.2 6.2 1.8 43 5.4 W 33 57 18 31 - - 2.4
23/08:30am 14.0 5.4 0.3 39 5.8 W 35 65 19 35 - - 2.4
23/08:00am 13.9 5.0 0.9 41 5.5 W 37 63 20 34 - - 2.4
23/07:30am 14.4 5.0 -0.1 37 6.1 W 39 65 21 35 - - 2.4
23/07:00am 14.5 6.6 2.4 44 5.4 W 33 54 18 29 - - 2.4
23/06:31am 14.9 8.1 3.1 45 5.3 W 28 52 15 28 - - 2.4
23/06:30am 14.8 8.4 3.3 46 5.2 W 26 44 14 24 - - 2.4
23/06:00am 15.1 8.6 4.5 49 4.9 W 28 50 15 27 - - 2.4
23/05:30am 15.7 8.5 5.0 49 5.1 W 32 57 17 31 - - 2.4
23/05:16am 16.4 9.8 4.4 45 5.6 W 28 46 15 25 - - 2.4
23/05:00am 16.5 10.4 4.9 46 5.5 W 26 44 14 24 - - 2.4
23/04:48am 16.7 10.2 4.7 45 5.7 W 28 65 15 35 - - 2.4
23/04:30am 16.4 10.5 5.7 49 5.2 W 26 41 14 22 - - 2.4
23/04:05am 16.8 10.1 5.4 47 5.5 W 30 52 16 28 - - 2.4
23/04:00am 16.9 10.2 5.5 47 5.5 W 30 43 16 23 - - 2.4
23/03:30am 16.9 10.4 6.4 50 5.2 W 30 50 16 27 - - 2.4
23/03:22am 16.9 10.8 6.4 50 5.2 W 28 48 15 26 - - 2.4
23/03:00am 17.3 12.0 6.8 50 5.2 W 24 35 13 19 - - 2.4
23/02:30am 18.2 11.7 6.4 46 5.8 W 30 48 16 26 - - 2.4
23/02:14am 18.3 12.7 8.8 54 4.9 WNW 28 59 15 32 - - 2.4
23/02:00am 17.3 13.9 10.4 64 3.7 W 19 33 10 18 - - 2.4
23/01:30am 17.6 14.2 11.4 67 3.4 W 20 28 11 15 - - 2.4
23/01:00am 18.1 14.4 12.8 71 3.0 W 24 46 13 25 - - 2.4
23/12:30am 19.1 17.2 15.8 81 2.0 WNW 20 32 11 17 - - 2.2
23/12:00am 19.5 16.1 15.8 79 2.2 WSW 28 44 15 24 - - 1.0
 
Date/Time
EST
Temp
°C
App
Temp
°C
Dew
Point
°C
Rel
Hum
%
Delta-T
°C
Wind Press
QNH
hPa
Press
MSL
hPa
Rain since
9am
mm
Dir  Spd
km/h
Gust
km/h
Spd
kts
Gust
kts
22/11:30pm 24.2 21.5 13.4 51 6.3 WNW 20 37 11 20 - - 0.0
22/11:00pm 24.2 20.3 13.4 51 6.3 NNW 26 44 14 24 - - 0.0
22/10:30pm 22.4 19.8 13.7 58 5.1 NNW 20 30 11 16 - - 0.0
22/10:00pm 21.8 19.9 14.2 62 4.4 N 17 32 9 17 - - 0.0
22/09:30pm 21.7 21.0 14.4 63 4.3 N 11 19 6 10 - - 0.0
22/09:00pm 20.0 19.4 13.5 66 3.7 N 9 19 5 10 - - 0.0
22/08:30pm 20.9 19.6 13.8 64 4.1 N 13 15 7 8 - - 0.0
22/08:00pm 21.1 18.4 13.5 62 4.4 N 20 32 11 17 - - 0.0
22/07:30pm 21.9 18.8 13.5 59 4.9 NNW 22 30 12 16 - - 0.0
22/07:00pm 21.9 18.4 13.5 59 4.9 NNW 24 41 13 22 - - 0.0
22/06:30pm 21.7 18.6 13.3 59 4.8 NNW 22 30 12 16 - - 0.0
22/06:00pm 21.5 18.4 13.4 60 4.7 NNW 22 30 12 16 - - 0.0
22/05:30pm 22.1 19.4 13.5 58 5.0 NNW 20 30 11 16 - - 0.0
22/05:00pm 23.4 20.3 13.3 53 5.9 NW 22 37 12 20 - - 0.0
22/04:38pm 23.2 19.1 13.7 55 5.5 NNW 28 46 15 25 - - 0.0
22/04:30pm 23.5 20.5 13.7 54 5.7 NNW 22 33 12 18 - - 0.0
22/04:00pm 24.1 22.5 15.1 57 5.4 NNW 17 28 9 15 - - 0.0
22/03:45pm 24.5 20.6 14.3 53 6.0 WNW 28 48 15 26 - - 0.0
22/03:30pm 24.6 20.3 14.4 53 6.1 NW 30 46 16 25 - - 0.0
22/03:00pm 24.5 21.9 14.9 55 5.7 NW 22 43 12 23 - - 0.0
22/02:30pm 24.5 20.0 14.9 55 5.7 NW 32 50 17 27 - - 0.0
22/02:01pm 25.1 21.3 14.6 52 6.3 NW 28 50 15 27 - - 0.0
22/02:00pm 25.1 21.8 14.9 53 6.1 NW 26 43 14 23 - - 0.0
22/01:30pm 25.3 20.6 14.4 50 6.5 NW 32 52 17 28 - - 0.0
22/01:00pm 24.7 19.3 15.1 55 5.8 NW 37 56 20 30 - - 0.0
22/12:55pm 24.6 19.6 15.0 55 5.8 NW 35 56 19 30 - - 0.0
22/12:54pm 24.4 19.2 14.5 54 5.9 NW 35 56 19 30 - - 0.0
22/12:30pm 24.4 22.4 15.6 58 5.3 NW 20 37 11 20 - - 0.0
22/12:18pm 24.1 22.2 15.1 57 5.4 NW 19 39 10 21 - - 0.0
22/12:00pm 23.1 23.1 16.2 65 4.2 NNE 11 15 6 8 - - 0.0
22/11:30am 22.1 21.1 16.6 71 3.3 NE 17 20 9 11 - - 0.0
22/11:00am 21.9 20.8 16.4 71 3.3 NNE 17 22 9 12 - - 0.0
22/10:30am 21.0 19.9 16.4 75 2.8 N 17 20 9 11 - - 0.0
22/10:00am 18.8 17.9 15.9 83 1.7 N 15 20 8 11 - - 0.0
22/09:30am 17.7 18.3 15.9 89 1.1 NNE 7 11 4 6 - - 0.0
22/09:00am 15.6 16.6 15.3 98 0.2 N 4 6 2 3 - - 0.2
22/08:30am 12.1 11.9 11.8 98 0.2 N 4 6 2 3 - - 0.2
22/08:00am 10.9 11.1 10.6 98 0.2 CALM 0 0 0 0 - - 0.2
22/07:30am 10.2 10.2 9.9 98 0.2 CALM 0 0 0 0 - - 0.2
22/07:00am 10.2 10.2 9.9 98 0.2 CALM 0 0 0 0 - - 0.2
22/06:30am 10.4 10.5 10.1 98 0.2 CALM 0 0 0 0 - - 0.2
22/06:00am 10.4 10.5 10.1 98 0.2 CALM 0 0 0 0 - - 0.2
22/05:30am 10.5 10.6 10.2 98 0.2 CALM 0 0 0 0 - - 0.2
22/05:00am 10.4 10.5 10.1 98 0.2 CALM 0 0 0 0 - - 0.0
22/04:30am 10.6 10.4 10.3 98 0.2 N 2 4 1 2 - - 0.0
22/04:00am 10.8 11.0 10.5 98 0.2 CALM 0 0 0 0 - - 0.0
22/03:30am 10.9 11.1 10.6 98 0.2 CALM 0 4 0 2 - - 0.0
22/03:00am 10.5 10.6 10.2 98 0.2 CALM 0 0 0 0 - - 0.0
22/02:30am 11.0 10.5 10.7 98 0.2 NNE 4 6 2 3 - - 0.0
22/02:00am 11.2 11.5 10.9 98 0.2 CALM 0 0 0 0 - - 0.0
22/01:30am 11.7 11.4 11.4 98 0.2 NW 4 6 2 3 - - 0.0
22/01:00am 11.7 12.1 11.4 98 0.2 CALM 0 4 0 2 - - 0.0
22/12:30am 11.5 11.9 11.2 98 0.2 CALM 0 0 0 0 - - 0.0
22/12:00am 11.6 11.6 11.3 98 0.2 SSE 2 4 1 2 - - 0.0
 
Date/Time
EST
Temp
°C
App
Temp
°C
Dew
Point
°C
Rel
Hum
%
Delta-T
°C
Wind Press
QNH
hPa
Press
MSL
hPa
Rain since
9am
mm
Dir  Spd
km/h
Gust
km/h
Spd
kts
Gust
kts
21/11:30pm 11.9 12.0 11.6 98 0.2 SSE 2 4 1 2 - - 0.0
21/11:00pm 12.0 12.2 11.7 98 0.2 SSE 2 4 1 2 - - 0.0
21/10:30pm 12.4 13.1 12.1 98 0.2 CALM 0 0 0 0 - - 0.0
21/10:00pm 12.6 13.3 12.3 98 0.2 CALM 0 0 0 0 - - 0.0
21/09:30pm 12.5 12.4 12.2 98 0.2 W 4 7 2 4 - - 0.0
21/09:00pm 13.3 14.2 13.0 98 0.2 CALM 0 4 0 2 - - 0.0
21/08:30pm 13.4 14.4 13.1 98 0.2 CALM 0 0 0 0 - - 0.0
21/08:00pm 13.9 15.0 13.6 98 0.2 CALM 0 0 0 0 - - 0.0
21/07:30pm 14.2 15.4 13.9 98 0.2 CALM 0 0 0 0 - - 0.0
21/07:00pm 14.6 16.0 14.3 98 0.2 CALM 0 0 0 0 - - 0.0
21/06:30pm 15.4 16.6 14.9 97 0.3 NW 2 4 1 2 - - 0.0
21/06:00pm 15.7 17.0 14.2 91 0.9 CALM 0 0 0 0 - - 0.0
21/05:30pm 16.7 17.5 14.9 89 1.0 NNW 4 6 2 3 - - 0.0
21/05:00pm 17.8 18.1 15.1 84 1.6 NE 7 9 4 5 - - 0.0
21/04:30pm 18.8 19.2 15.3 80 2.1 NNE 7 9 4 5 - - 0.0
21/04:00pm 19.3 19.1 14.8 75 2.6 NNE 9 13 5 7 - - 0.0
21/03:30pm 19.9 20.7 14.7 72 3.0 NNW 4 7 2 4 - - 0.0
21/03:00pm 20.2 21.3 14.6 70 3.3 NW 2 6 1 3 - - 0.0
21/02:30pm 19.9 20.9 14.3 70 3.2 W 2 4 1 2 - - 0.0
21/02:00pm 19.3 20.0 14.6 74 2.7 SSW 4 6 2 3 - - 0.0
21/01:30pm 18.9 19.9 14.4 75 2.6 N 2 6 1 3 - - 0.0
21/01:00pm 18.6 19.3 14.5 77 2.4 NW 4 6 2 3 - - 0.0
21/12:30pm 17.8 19.2 14.3 80 2.0 CALM 0 0 0 0 - - 0.0
21/12:00pm 17.6 18.7 14.5 82 1.8 S 2 6 1 3 - - 0.0
21/11:30am 17.1 17.3 14.7 86 1.4 SW 7 11 4 6 - - 0.0
21/11:00am 16.6 16.9 15.1 91 0.9 S 7 13 4 7 - - 0.0
21/10:30am 16.1 16.1 15.1 94 0.6 SW 9 15 5 8 - - 0.0
21/10:00am 15.5 16.1 15.2 98 0.2 SW 6 7 3 4 - - 0.0
21/09:30am 15.8 16.1 14.5 92 0.7 SW 6 9 3 5 - - 0.0
21/09:00am 15.5 16.3 14.7 95 0.5 S 4 7 2 4 - - 17.2
21/08:30am 15.0 15.3 14.4 96 0.3 SSW 6 7 3 4 - - 17.2
21/08:00am 14.7 14.9 14.2 97 0.3 SW 6 7 3 4 - - 17.2
21/07:30am 14.6 14.7 13.8 95 0.4 SSW 6 9 3 5 - - 17.2
21/07:00am 14.4 14.4 13.6 95 0.4 S 6 7 3 4 - - 17.2
21/06:30am 14.6 14.6 13.5 93 0.6 SSW 6 9 3 5 - - 17.2
21/06:00am 14.6 14.3 13.3 92 0.7 SSW 7 11 4 6 - - 17.2
21/05:30am 14.5 14.4 13.2 92 0.7 S 6 9 3 5 - - 17.2
21/05:00am 14.4 14.0 13.0 91 0.8 S 7 11 4 6 - - 17.2
21/04:30am 14.9 14.5 12.9 88 1.1 SSW 7 11 4 6 - - 17.2
21/04:00am 15.0 14.6 13.0 88 1.1 SW 7 13 4 7 - - 17.2
21/03:30am 15.0 14.2 12.9 87 1.2 SW 9 13 5 7 - - 17.2
21/03:00am 15.1 14.7 13.1 88 1.1 SW 7 9 4 5 - - 17.2
21/02:30am 15.1 14.9 13.1 88 1.1 SSW 6 9 3 5 - - 17.2
21/02:00am 15.0 14.9 13.4 90 0.9 SSW 6 9 3 5 - - 17.2
21/01:30am 14.9 14.6 13.4 91 0.8 SSW 7 13 4 7 - - 17.2
21/01:00am 14.9 15.0 13.9 94 0.6 SSW 6 9 3 5 - - 17.2
21/12:30am 14.0 14.0 13.7 98 0.2 SSW 6 7 3 4 - - 17.2
21/12:00am 13.8 14.9 13.5 98 0.2 CALM 0 4 0 2 - - 17.2
 
Date/Time
EST
Temp
°C
App
Temp
°C
Dew
Point
°C
Rel
Hum
%
Delta-T
°C
Wind Press
QNH
hPa
Press
MSL
hPa
Rain since
9am
mm
Dir  Spd
km/h
Gust
km/h
Spd
kts
Gust
kts
20/11:30pm 13.5 14.5 13.2 98 0.2 CALM 0 4 0 2 - - 17.2
20/11:00pm 14.0 15.2 13.7 98 0.2 CALM 0 4 0 2 - - 17.2
20/10:30pm 14.0 13.8 13.7 98 0.2 SSE 7 9 4 5 - - 17.2
20/10:00pm 14.0 14.4 13.7 98 0.2 SSW 4 6 2 3 - - 17.2
20/09:30pm 14.2 15.4 13.9 98 0.2 CALM 0 0 0 0 - - 17.2
20/09:00pm 14.4 14.9 14.1 98 0.2 S 4 6 2 3 - - 17.2
20/08:30pm 14.4 14.0 14.1 98 0.2 SSE 9 11 5 6 - - 17.2
20/08:00pm 14.2 15.4 13.9 98 0.2 CALM 0 0 0 0 - - 17.2
20/07:30pm 14.4 14.0 14.1 98 0.2 NE 9 15 5 8 - - 17.0
20/07:00pm 14.3 14.4 14.0 98 0.2 S 6 6 3 3 - - 17.0

Other Formats:

Comma delimited format used in spreadsheet applications
http://www.bom.gov.au/fwo/IDN60801/IDN60801.94763.axf

JavaScript Object Notation format (JSON) in row-major order
http://www.bom.gov.au/fwo/IDN60801/IDN60801.94763.json